Time;durP1;ratioP1;P1;durP2;ratioP2;P2;SDS_P1;SDS_P2;PMS_P1;PMS_P2;Temp;Humidity;BMP_temperature;BMP_pressure;BME280_temperature;BME280_humidity;BME280_pressure;Samples;Min_cycle;Max_cycle;Signal;HPM_P1;HPM_P2
2022/01/29 00:02:27;;;;;;;;;6.50;4.00;;;;;3.05;69.89;100373.09;6330619;20;1818141;-44
2022/01/29 00:04:54;;;;;;;;;5.00;4.00;;;;;2.97;69.47;100376.78;6314285;20;3439878;-42
2022/01/29 00:07:22;;;;;;;;;4.00;1.67;;;;;3.12;68.59;100379.13;6315275;20;3456523;-44
2022/01/29 00:09:51;;;;;;;;;5.50;4.00;;;;;3.00;68.01;100382.03;6332324;20;1825324;-44
2022/01/29 00:12:19;;;;;;;;;1.33;1.33;;;;;3.12;66.61;100389.75;6314171;20;3435657;-42
2022/01/29 00:14:47;;;;;;;;;5.75;3.50;;;;;3.18;66.43;100386.97;6330192;20;1825296;-43
2022/01/29 00:17:16;;;;;;;;;9.25;4.00;;;;;3.01;66.69;100397.06;6332605;20;1825309;-42
2022/01/29 00:19:44;;;;;;;;;9.00;5.00;;;;;2.90;66.23;100405.22;6332581;20;1821186;-45
2022/01/29 00:22:12;;;;;;;;;7.00;5.00;;;;;2.89;65.76;100406.09;6313793;20;3454402;-42
2022/01/29 00:24:43;;;;;;;;;4.00;3.50;;;;;2.89;65.18;100407.88;6330233;20;1825284;-42
2022/01/29 00:27:12;;;;;;;;;4.25;4.25;;;;;2.93;64.23;100401.63;6331680;20;1825325;-43
2022/01/29 00:29:43;;;;;;;;;4.00;2.00;;;;;2.94;63.77;100411.31;6315395;20;2685663;-43
2022/01/29 00:32:12;;;;;;;;;1.00;1.00;;;;;2.80;63.93;100409.81;6315188;20;3445033;-43
2022/01/29 00:34:42;;;;;;;;;1.00;1.00;;;;;2.91;62.97;100409.59;6314727;20;2723281;-44
2022/01/29 00:37:10;;;;;;;;;0.67;0.00;;;;;2.74;62.93;100417.88;6314608;20;2731627;-45
2022/01/29 00:39:38;;;;;;;;;0.33;0.33;;;;;2.82;61.91;100431.88;6315235;20;3439828;-43
2022/01/29 00:42:06;;;;;;;;;5.00;1.00;;;;;2.76;61.57;100418.69;6317777;20;3320147;-44
2022/01/29 00:44:45;;;;;;;;;2.00;0.67;;;;;2.86;61.34;100422.94;6312466;20;3445088;-42
2022/01/29 00:47:14;;;;;;;;;4.00;1.00;;;;;2.80;61.27;100438.97;6315024;20;2717047;-43
2022/01/29 00:49:43;;;;;;;;;11.00;5.00;;;;;2.88;60.95;100435.31;6313644;20;3487730;-44
2022/01/29 00:52:12;;;;;;;;;5.00;5.00;;;;;2.93;61.09;100425.50;6282363;20;2756726;-43
2022/01/29 00:54:41;;;;;;;;;4.00;2.00;;;;;2.79;61.22;100429.28;6309380;20;3446283;-44
2022/01/29 00:57:09;;;;;;;;;4.33;2.00;;;;;2.80;61.09;100430.16;6319041;20;3470016;-42
2022/01/29 00:59:37;;;;;;;;;1.67;1.00;;;;;2.78;61.07;100422.22;6287905;20;3448157;-41
2022/01/29 01:02:08;;;;;;;;;5.00;2.00;;;;;2.70;60.77;100428.56;6318464;20;3471095;-43
2022/01/29 01:04:39;;;;;;;;;7.00;4.00;;;;;2.82;60.87;100431.00;6316553;20;2756548;-44
2022/01/29 01:07:09;;;;;;;;;4.00;2.00;;;;;2.68;61.30;100447.13;6288455;20;3448165;-43
2022/01/29 01:09:38;;;;;;;;;10.25;5.00;;;;;2.71;62.04;100448.84;6338326;20;1817047;-42
2022/01/29 01:12:08;;;;;;;;;5.25;2.00;;;;;2.47;63.10;100455.44;6336863;20;1825288;-41
2022/01/29 01:14:37;;;;;;;;;7.50;4.00;;;;;2.27;63.88;100461.94;6335484;20;1825300;-47
2022/01/29 01:17:07;;;;;;;;;5.00;2.00;;;;;2.31;64.45;100458.31;6336166;20;1821121;-43
2022/01/29 01:19:35;;;;;;;;;2.00;1.00;;;;;2.39;64.63;100461.72;6319193;20;3445051;-42
2022/01/29 01:22:03;;;;;;;;;1.00;1.00;;;;;2.29;64.70;100468.09;6316019;20;3445304;-48
2022/01/29 01:24:31;;;;;;;;;2.00;0.33;;;;;2.28;65.05;100468.97;6315992;20;3439860;-44
2022/01/29 01:26:59;;;;;;;;;2.33;0.00;;;;;2.42;65.17;100466.09;6320380;20;3437726;-41
2022/01/29 01:29:27;;;;;;;;;2.67;1.00;;;;;2.20;66.02;100466.44;6318900;20;3450232;-44
2022/01/29 01:31:55;;;;;;;;;3.00;0.33;;;;;2.22;66.28;100474.38;6321457;20;3439868;-43
2022/01/29 01:34:25;;;;;;;;;1.00;1.00;;;;;2.05;66.71;100463.16;6318928;20;3448303;-42
2022/01/29 01:37:01;;;;;;;;;5.00;2.00;;;;;2.04;67.16;100464.91;6316133;20;3439867;-43
2022/01/29 01:39:33;;;;;;;;;2.00;1.00;;;;;1.95;67.25;100465.94;6319314;20;3436677;-43
2022/01/29 01:42:05;;;;;;;;;1.67;1.00;;;;;1.87;67.47;100473.13;6318287;20;2722243;-43
2022/01/29 01:44:46;;;;;;;;;1.33;1.33;;;;;1.65;68.04;100461.03;6318406;20;3446193;-42
2022/01/29 01:47:17;;;;;;;;;5.00;1.00;;;;;1.88;67.30;100463.38;6319083;20;3445072;-42
2022/01/29 01:49:45;;;;;;;;;4.67;1.00;;;;;2.00;66.86;100463.19;6317405;20;2727498;-41
2022/01/29 01:52:14;;;;;;;;;2.00;2.00;;;;;2.07;67.16;100470.16;6318856;20;3449331;-43
2022/01/29 01:54:43;;;;;;;;;2.00;0.33;;;;;2.09;66.72;100472.81;6316053;20;3437727;-42
2022/01/29 01:57:12;;;;;;;;;2.33;1.67;;;;;1.92;66.84;100465.97;6319105;20;3450264;-42
2022/01/29 01:59:39;;;;;;;;;2.00;2.00;;;;;2.06;66.58;100480.81;6318883;20;3446053;-42
2022/01/29 02:02:07;;;;;;;;;3.00;1.00;;;;;2.02;66.74;100476.44;6316443;20;3446083;-42
2022/01/29 02:04:37;;;;;;;;;1.33;1.33;;;;;2.08;66.87;100486.94;6317696;20;3448177;-42
2022/01/29 02:07:06;;;;;;;;;1.00;1.00;;;;;2.02;66.47;100481.72;6316060;20;3444019;-42
2022/01/29 02:09:34;;;;;;;;;1.33;1.33;;;;;2.03;66.97;100478.16;6318721;20;3452406;-45
2022/01/29 02:12:03;;;;;;;;;2.00;2.00;;;;;1.98;67.11;100481.78;6316232;20;3467939;-42
2022/01/29 02:14:33;;;;;;;;;1.33;1.00;;;;;1.81;67.53;100490.84;6287173;20;3445092;-42
2022/01/29 02:17:04;;;;;;;;;0.33;0.33;;;;;1.85;67.02;100488.13;6317064;20;3434612;-42
2022/01/29 02:19:33;;;;;;;;;3.33;1.00;;;;;1.78;67.20;100489.09;6313299;20;3454431;-43
2022/01/29 02:22:01;;;;;;;;;4.00;0.33;;;;;1.97;66.60;100495.03;6318834;20;3452316;-42
2022/01/29 02:24:30;;;;;;;;;2.00;2.00;;;;;1.75;66.82;100505.03;6316590;20;2732716;-41
2022/01/29 02:26:58;;;;;;;;;7.00;2.00;;;;;1.86;66.77;100503.13;6318467;20;3446048;-44
2022/01/29 02:29:28;;;;;;;;;1.33;1.33;;;;;2.10;65.95;100506.34;6317011;20;3445082;-41
2022/01/29 02:31:58;;;;;;;;;1.00;1.00;;;;;1.86;66.39;100513.72;6313771;20;2725378;-45
2022/01/29 02:34:30;;;;;;;;;4.75;4.00;;;;;1.80;66.43;100511.16;6333772;20;1825268;-42
2022/01/29 02:36:58;;;;;;;;;4.67;4.00;;;;;1.74;66.65;100504.16;6314917;20;3468018;-42
2022/01/29 02:39:26;;;;;;;;;4.00;1.33;;;;;1.82;66.59;100512.00;6284832;20;3444009;-44
2022/01/29 02:41:58;;;;;;;;;1.60;1.00;;;;;1.85;66.33;100509.31;6354301;20;2631621;-42
2022/01/29 02:44:26;;;;;;;;;1.33;1.00;;;;;1.81;66.51;100512.00;6284303;20;3452333;-42
2022/01/29 02:46:56;;;;;;;;;4.00;1.00;;;;;2.00;66.55;100515.28;6318384;20;2724372;-43
2022/01/29 02:49:26;;;;;;;;;1.67;1.67;;;;;1.90;66.86;100526.03;6316623;20;3457510;-42
2022/01/29 02:51:57;;;;;;;;;2.00;1.00;;;;;2.10;66.88;100522.22;6313830;20;2729527;-43
2022/01/29 02:54:27;;;;;;;;;0.00;0.00;;;;;1.98;66.37;100521.50;6316726;20;3454427;-44
2022/01/29 02:56:55;;;;;;;;;1.00;1.00;;;;;1.93;66.41;100523.34;6317580;20;2725771;-43
2022/01/29 02:59:22;;;;;;;;;0.33;0.33;;;;;1.95;66.20;100524.19;6318634;20;2731567;-42
2022/01/29 03:01:50;;;;;;;;;1.00;1.00;;;;;1.87;66.11;100523.41;6335596;20;1812871;-45
2022/01/29 03:04:18;;;;;;;;;2.00;1.00;;;;;1.84;66.06;100519.91;6283966;20;3459605;-46
2022/01/29 03:06:46;;;;;;;;;2.00;2.00;;;;;1.77;66.41;100527.06;6314217;20;3457971;-43
2022/01/29 03:09:14;;;;;;;;;2.00;2.00;;;;;1.86;66.00;100524.28;6316509;20;3452361;-42
2022/01/29 03:11:42;;;;;;;;;3.00;1.00;;;;;1.90;65.83;100539.25;6318783;20;2724280;-42
2022/01/29 03:14:09;;;;;;;;;6.33;2.00;;;;;2.01;65.69;100544.41;6314732;20;3466906;-44
2022/01/29 03:16:38;;;;;;;;;2.67;1.00;;;;;1.82;66.41;100541.13;6314940;20;2734717;-44
2022/01/29 03:19:06;;;;;;;;;4.00;1.33;;;;;1.81;65.87;100551.72;6315166;20;3442992;-42
2022/01/29 03:21:33;;;;;;;;;2.00;2.00;;;;;2.07;65.72;100554.06;6317488;20;3454425;-41
2022/01/29 03:24:01;;;;;;;;;0.33;0.33;;;;;2.04;65.55;100559.41;6314228;20;3437748;-42
2022/01/29 03:26:29;;;;;;;;;1.00;1.00;;;;;1.93;66.50;100556.88;6317217;20;3446064;-42
2022/01/29 03:28:57;;;;;;;;;4.00;0.00;;;;;1.90;66.25;100551.63;6316720;20;3442915;-42
2022/01/29 03:31:28;;;;;;;;;2.00;0.33;;;;;1.90;66.43;100555.16;6317499;20;2728517;-43
2022/01/29 03:33:56;;;;;;;;;1.00;1.00;;;;;1.94;66.39;100554.19;6314978;20;3443002;-44
2022/01/29 03:36:24;;;;;;;;;1.00;1.00;;;;;1.81;67.67;100543.78;6315519;20;3442958;-44
2022/01/29 03:38:51;;;;;;;;;1.00;1.00;;;;;1.81;67.13;100547.31;6314768;20;2728663;-43
2022/01/29 03:41:19;;;;;;;;;3.67;1.00;;;;;1.84;67.25;100551.69;6315665;20;3444089;-42
2022/01/29 03:43:51;;;;;;;;;3.00;2.00;;;;;1.92;67.25;100550.72;6313139;20;3454434;-43
2022/01/29 03:46:18;;;;;;;;;3.33;2.00;;;;;2.07;67.44;100554.06;6314571;20;3437745;-42
2022/01/29 03:48:46;;;;;;;;;1.00;1.00;;;;;2.09;67.05;100552.28;6316659;20;3441947;-42
2022/01/29 03:51:14;;;;;;;;;0.33;0.33;;;;;1.95;67.60;100555.97;6315292;20;3433610;-46
2022/01/29 03:53:42;;;;;;;;;1.00;1.00;;;;;2.02;67.87;100551.47;6316663;20;2725361;-42
2022/01/29 03:56:10;;;;;;;;;4.67;1.00;;;;;1.92;67.95;100558.66;6317161;20;3442999;-42
2022/01/29 03:58:37;;;;;;;;;4.00;1.33;;;;;2.02;67.60;100555.88;6314940;20;3443066;-43
2022/01/29 04:01:05;;;;;;;;;4.00;1.00;;;;;2.01;67.89;100557.66;6313949;20;3438908;-42
2022/01/29 04:03:33;;;;;;;;;6.67;4.33;;;;;1.96;68.17;100554.19;6315557;20;3456678;-42
2022/01/29 04:06:01;;;;;;;;;1.00;1.00;;;;;1.96;67.96;100541.81;6315018;20;3442927;-42
2022/01/29 04:08:29;;;;;;;;;2.00;1.00;;;;;1.70;68.78;100547.44;6315449;20;3435690;-41
2022/01/29 04:10:56;;;;;;;;;1.00;1.00;;;;;1.86;68.37;100549.91;6315333;20;2722335;-44
2022/01/29 04:13:26;;;;;;;;;1.00;1.00;;;;;1.98;67.75;100555.94;6314720;20;3435753;-43
2022/01/29 04:15:54;;;;;;;;;1.00;1.00;;;;;1.95;67.91;100555.09;6314112;20;3444038;-41
2022/01/29 04:18:22;;;;;;;;;5.00;1.00;;;;;1.88;68.08;100548.13;6313277;20;2731064;-43
2022/01/29 04:20:50;;;;;;;;;1.00;1.00;;;;;1.89;68.12;100561.31;6315678;20;2725335;-41
2022/01/29 04:23:17;;;;;;;;;1.00;1.00;;;;;1.94;68.02;100559.50;6314366;20;2723284;-42
2022/01/29 04:25:45;;;;;;;;;1.00;0.00;;;;;1.86;67.89;100556.06;6314684;20;3435676;-42
2022/01/29 04:28:14;;;;;;;;;4.00;1.00;;;;;1.98;67.74;100561.22;6315769;20;3448158;-42
2022/01/29 04:30:50;;;;;;;;;0.00;0.00;;;;;1.78;68.27;100560.59;6313504;20;2729508;-44
2022/01/29 04:35:47;;;;;;;;;0.33;0.33;;;;;2.19;66.94;100575.09;6314423;20;3441924;-44
2022/01/29 04:38:15;;;;;;;;;1.00;1.00;;;;;2.11;67.10;100576.97;6316290;20;2727404;-42
2022/01/29 04:40:43;;;;;;;;;0.67;0.67;;;;;2.28;66.34;100572.31;6315642;20;2723246;-41
2022/01/29 04:43:11;;;;;;;;;2.00;1.00;;;;;2.36;65.88;100578.38;6314229;20;3446090;-47
2022/01/29 04:45:41;;;;;;;;;4.67;1.00;;;;;2.20;66.34;100568.91;6314815;20;2725342;-44
2022/01/29 04:48:10;;;;;;;;;4.00;1.33;;;;;2.19;66.50;100569.81;6313693;20;2728453;-44
2022/01/29 04:50:38;;;;;;;;;2.00;1.00;;;;;2.19;66.32;100567.16;6315561;20;3447133;-43
2022/01/29 04:53:06;;;;;;;;;2.00;2.00;;;;;2.18;65.84;100562.72;6313095;20;3448148;-43
2022/01/29 04:55:36;;;;;;;;;1.00;1.00;;;;;2.34;65.22;100566.97;6315877;20;3433556;-42
2022/01/29 04:58:05;;;;;;;;;1.00;1.00;;;;;2.22;65.77;100574.19;6313110;20;3438789;-42
2022/01/29 05:00:35;;;;;;;;;1.33;1.33;;;;;2.10;66.28;100575.19;6315018;20;2722228;-42
2022/01/29 05:03:12;;;;;;;;;2.67;2.00;;;;;2.31;65.62;100580.22;6310640;20;3471209;-42
2022/01/29 05:05:43;;;;;;;;;8.50;6.00;;;;;2.04;66.09;100585.88;6300527;20;1818728;-41
2022/01/29 05:08:12;;;;;;;;;0.67;0.67;;;;;2.27;64.94;100589.13;6311496;20;2731614;-42
2022/01/29 05:10:40;;;;;;;;;1.00;1.00;;;;;2.39;64.67;100590.72;6315281;20;3441935;-42
2022/01/29 05:13:11;;;;;;;;;4.00;0.33;;;;;2.36;65.43;100601.38;6314724;20;3439815;-43
2022/01/29 05:29:17;;;;;;;;;8.25;6.50;;;;;2.34;64.45;100617.31;6329554;20;1823305;-42
2022/01/29 05:31:45;;;;;;;;;6.33;6.33;;;;;2.42;63.88;100625.13;6311564;20;3462872;-42
2022/01/29 05:34:14;;;;;;;;;7.25;4.25;;;;;2.47;63.78;100627.72;6329281;20;1832084;-42
2022/01/29 05:36:42;;;;;;;;;8.00;8.00;;;;;2.32;63.91;100627.03;6331198;20;1819114;-42
2022/01/29 05:39:10;;;;;;;;;5.33;5.33;;;;;2.10;64.42;100631.69;6310476;20;3464800;-42
2022/01/29 05:41:39;;;;;;;;;4.50;2.50;;;;;2.33;63.68;100627.91;6336027;20;1820141;-43
2022/01/29 05:44:07;;;;;;;;;7.33;7.33;;;;;2.58;62.62;100634.66;6317235;20;3455652;-42
2022/01/29 05:46:35;;;;;;;;;6.33;4.00;;;;;2.35;63.31;100634.94;6317592;20;3457028;-42
2022/01/29 05:49:03;;;;;;;;;14.00;10.00;;;;;2.65;62.47;100632.78;6314994;20;2789929;-42
2022/01/29 05:51:31;;;;;;;;;0.00;0.00;;;;;2.40;63.10;100630.47;6287914;20;2729646;-42
2022/01/29 05:54:01;;;;;;;;;4.00;1.33;;;;;2.30;62.84;100631.47;6318399;20;3436701;-42
2022/01/29 05:56:29;;;;;;;;;6.33;6.33;;;;;2.31;62.71;100627.03;6317616;20;2752410;-42
2022/01/29 05:58:58;;;;;;;;;5.00;3.50;;;;;2.23;63.22;100632.44;6332785;20;1824453;-42
2022/01/29 06:01:26;;;;;;;;;26.00;17.00;;;;;2.34;63.04;100637.59;6318619;20;2831588;-42
2022/01/29 06:03:55;;;;;;;;;43.00;26.00;;;;;2.20;63.04;100636.00;6280347;20;2873275;-42
2022/01/29 06:06:24;;;;;;;;;60.50;43.50;;;;;2.31;62.85;100643.81;6285411;20;2862124;-43
2022/01/29 06:08:52;;;;;;;;;22.50;13.00;;;;;2.31;62.42;100637.63;6284367;20;2801301;-42
2022/01/29 06:11:21;;;;;;;;;45.00;35.00;;;;;2.27;62.35;100642.13;6277393;20;2500345;-42
2022/01/29 06:13:49;;;;;;;;;49.00;40.50;;;;;2.07;63.24;100638.81;6284344;20;2875243;-45
2022/01/29 06:16:19;;;;;;;;;43.67;30.67;;;;;2.09;63.14;100642.34;6283549;20;2874326;-42
2022/01/29 06:18:48;;;;;;;;;42.00;33.00;;;;;2.16;62.92;100649.31;6312130;20;2869062;-43
2022/01/29 06:21:17;;;;;;;;;52.50;42.00;;;;;2.31;62.59;100642.94;6284164;20;2887844;-44
2022/01/29 06:23:45;;;;;;;;;29.67;17.67;;;;;2.16;62.61;100638.72;6279435;20;3576311;-41
2022/01/29 06:26:14;;;;;;;;;30.00;24.50;;;;;2.09;62.63;100637.91;6281167;20;2837772;-44
2022/01/29 06:28:42;;;;;;;;;7.50;7.00;;;;;2.30;62.04;100641.19;6286121;20;2754455;-42
2022/01/29 06:31:11;;;;;;;;;53.50;39.00;;;;;2.29;61.67;100644.72;6316579;20;2874247;-43
2022/01/29 06:33:40;;;;;;;;;42.50;38.00;;;;;2.47;61.00;100648.94;6283633;20;2855483;-42
2022/01/29 06:36:10;;;;;;;;;64.33;46.67;;;;;2.60;60.40;100643.44;6284468;20;2865871;-42
2022/01/29 06:38:37;;;;;;;;;23.50;17.50;;;;;2.87;60.62;100657.22;6316074;20;2820073;-44
2022/01/29 06:41:06;;;;;;;;;59.50;42.50;;;;;2.86;59.48;100653.69;6284560;20;2885710;-45
2022/01/29 06:43:35;;;;;;;;;39.00;27.00;;;;;3.18;58.65;100662.06;6281519;20;2867053;-43
2022/01/29 06:46:04;;;;;;;;;35.00;32.50;;;;;3.30;58.22;100653.91;6282976;20;2864841;-43
2022/01/29 06:48:33;;;;;;;;;56.33;37.00;;;;;3.12;58.75;100654.19;6282548;20;2879472;-43
2022/01/29 06:51:03;;;;;;;;;49.33;38.00;;;;;3.26;58.45;100655.72;6315659;20;2873219;-43
2022/01/29 06:53:32;;;;;;;;;18.67;15.00;;;;;3.39;58.03;100655.53;6312106;20;3550246;-42
2022/01/29 06:56:00;;;;;;;;;28.67;19.67;;;;;3.64;57.22;100651.56;6280338;20;3583576;-44
2022/01/29 06:58:29;;;;;;;;;47.50;33.00;;;;;3.41;57.84;100651.06;6282989;20;2874238;-42
2022/01/29 07:01:17;;;;;;;;;61.00;48.00;;;;;3.68;57.28;100661.19;6278900;20;2496125;-42
2022/01/29 07:03:46;;;;;;;;;45.50;33.00;;;;;3.77;57.16;100652.22;6283671;20;2854530;-43
2022/01/29 07:06:14;;;;;;;;;17.67;14.33;;;;;4.49;55.30;100652.59;6280387;20;3552311;-42
2022/01/29 07:08:42;;;;;;;;;22.50;16.00;;;;;5.27;53.58;100656.16;6316500;20;2820645;-44
2022/01/29 07:11:11;;;;;;;;;24.33;17.33;;;;;5.74;52.21;100662.06;6283796;20;3574204;-43
2022/01/29 07:13:39;;;;;;;;;27.50;21.00;;;;;6.04;51.25;100659.53;6316071;20;2838833;-42
2022/01/29 07:16:08;;;;;;;;;48.00;36.00;;;;;6.12;50.98;100665.53;6284808;20;2871144;-43
2022/01/29 07:18:36;;;;;;;;;27.50;24.00;;;;;6.24;50.57;100672.28;6281107;20;2846133;-43
2022/01/29 07:21:05;;;;;;;;;22.00;16.67;;;;;5.66;50.93;100656.03;6282612;20;3564913;-43
2022/01/29 07:23:35;;;;;;;;;18.33;17.00;;;;;5.87;50.50;100667.94;6283472;20;3556564;-45
2022/01/29 07:26:05;;;;;;;;;14.80;14.00;;;;;5.49;50.55;100652.03;6338575;20;2795048;-43
2022/01/29 07:28:33;;;;;;;;;23.50;20.50;;;;;5.49;51.42;100657.34;6286236;20;2824196;-44
2022/01/29 07:31:03;;;;;;;;;19.00;14.67;;;;;5.19;51.66;100652.78;6280529;20;3549227;-43
2022/01/29 07:33:31;;;;;;;;;13.00;9.00;;;;;5.20;51.68;100654.53;6316765;20;2752337;-43
2022/01/29 07:35:59;;;;;;;;;9.00;9.00;;;;;5.05;52.24;100659.31;6317676;20;2476306;-43
2022/01/29 07:38:27;;;;;;;;;14.00;11.00;;;;;4.84;52.33;100668.66;6313639;20;2794952;-44
2022/01/29 07:40:55;;;;;;;;;17.00;13.00;;;;;4.67;53.00;100657.50;6283206;20;2798187;-44
2022/01/29 07:43:23;;;;;;;;;16.33;10.33;;;;;4.64;52.71;100662.03;6282215;20;3504418;-43
2022/01/29 07:45:51;;;;;;;;;13.00;9.00;;;;;4.60;53.42;100664.72;6281462;20;2769005;-44
2022/01/29 07:48:19;;;;;;;;;13.00;11.00;;;;;4.50;53.72;100664.97;6283203;20;2789881;-44
2022/01/29 07:50:48;;;;;;;;;9.00;8.20;;;;;4.51;53.89;100659.63;6306217;20;2754430;-44
2022/01/29 07:53:18;;;;;;;;;4.75;4.75;;;;;4.62;54.11;100656.72;6333626;20;1815966;-43
2022/01/29 07:55:45;;;;;;;;;8.00;8.00;;;;;4.41;54.22;100658.06;6315086;20;2737741;-43
2022/01/29 07:58:14;;;;;;;;;8.25;6.00;;;;;4.44;53.92;100651.81;6332233;20;1823328;-45
2022/01/29 08:00:42;;;;;;;;;10.75;8.00;;;;;4.49;53.30;100652.59;6332676;20;1816042;-42
2022/01/29 08:03:10;;;;;;;;;7.00;7.00;;;;;4.64;52.94;100654.06;6317225;20;2747159;-45
2022/01/29 08:05:39;;;;;;;;;3.00;3.00;;;;;4.64;52.84;100664.69;6313864;20;3440906;-43
2022/01/29 08:08:15;;;;;;;;;9.50;8.50;;;;;4.56;52.76;100663.06;6331333;20;1818136;-42
2022/01/29 08:10:43;;;;;;;;;7.00;5.00;;;;;4.70;52.38;100668.06;6317621;20;2751304;-45
2022/01/29 08:13:12;;;;;;;;;6.00;2.00;;;;;4.93;51.23;100672.91;6331116;20;1825429;-44
2022/01/29 08:15:40;;;;;;;;;3.00;2.00;;;;;4.76;51.44;100669.72;6336392;20;1820529;-42
2022/01/29 08:18:09;;;;;;;;;3.00;2.67;;;;;5.41;50.32;100669.97;6338009;20;1814863;-42
2022/01/29 08:20:37;;;;;;;;;5.50;4.50;;;;;5.29;51.23;100670.28;6335298;20;1813239;-44
2022/01/29 08:23:11;;;;;;;;;4.00;4.00;;;;;5.20;51.30;100673.16;6335248;20;1818004;-43
2022/01/29 08:25:40;;;;;;;;;2.50;2.50;;;;;4.85;51.20;100669.53;6333117;20;1822151;-43
2022/01/29 08:28:09;;;;;;;;;5.25;3.50;;;;;5.26;50.40;100665.03;6336230;20;1823277;-42
2022/01/29 08:30:37;;;;;;;;;6.00;6.00;;;;;5.40;50.24;100662.91;6318743;20;2747145;-41
2022/01/29 08:33:06;;;;;;;;;10.50;6.50;;;;;5.39;50.15;100660.28;6318901;20;2763910;-42
2022/01/29 08:35:35;;;;;;;;;6.00;5.00;;;;;5.65;49.25;100655.16;6284552;20;2748160;-44
2022/01/29 08:38:03;;;;;;;;;6.50;5.00;;;;;5.66;49.11;100659.59;6335738;20;1825102;-44
2022/01/29 08:40:32;;;;;;;;;5.00;5.00;;;;;5.68;50.23;100670.19;6335916;20;1825943;-42
2022/01/29 08:43:00;;;;;;;;;5.00;5.00;;;;;5.64;49.56;100668.56;6317794;20;2756544;-42
2022/01/29 08:45:29;;;;;;;;;2.50;2.50;;;;;5.55;49.80;100674.09;6302044;20;1819131;-42
2022/01/29 08:47:57;;;;;;;;;5.33;3.00;;;;;5.21;50.21;100669.59;6319590;20;3456501;-42
2022/01/29 08:50:25;;;;;;;;;5.00;5.00;;;;;5.36;50.54;100671.88;6304832;20;1823290;-43
2022/01/29 08:52:54;;;;;;;;;8.25;6.50;;;;;5.56;49.93;100667.88;6335711;20;1818099;-44
2022/01/29 08:55:22;;;;;;;;;10.00;10.00;;;;;5.58;49.33;100671.34;6314038;20;2789831;-42
2022/01/29 08:57:50;;;;;;;;;7.00;7.00;;;;;5.42;49.41;100669.06;6306329;20;1819669;-42
2022/01/29 09:00:19;;;;;;;;;13.00;6.00;;;;;5.39;49.23;100669.13;6333573;20;1819110;-43
2022/01/29 09:02:47;;;;;;;;;10.00;8.50;;;;;5.24;50.05;100673.06;6316511;20;2756977;-42
2022/01/29 09:05:18;;;;;;;;;6.00;6.00;;;;;5.54;49.51;100669.69;6299813;20;1815998;-42
2022/01/29 09:07:47;;;;;;;;;13.50;11.00;;;;;5.85;49.17;100670.66;6314449;20;2791036;-42
2022/01/29 09:10:16;;;;;;;;;5.00;5.00;;;;;5.69;47.27;100675.50;6301725;20;1823308;-42
2022/01/29 09:12:44;;;;;;;;;10.50;9.00;;;;;6.21;45.51;100683.91;6315776;20;2760811;-42
2022/01/29 09:15:12;;;;;;;;;0.67;0.67;;;;;6.01;45.05;100689.81;6283516;20;3448208;-43
2022/01/29 09:17:41;;;;;;;;;5.00;1.75;;;;;5.93;44.28;100690.00;6341175;20;1815981;-42
2022/01/29 09:20:12;;;;;;;;;3.00;3.00;;;;;6.15;43.21;100697.44;6338677;20;1825360;-44
2022/01/29 09:22:40;;;;;;;;;6.00;6.00;;;;;6.29;42.85;100703.28;6337181;20;1817488;-43
2022/01/29 09:25:09;;;;;;;;;2.00;2.00;;;;;6.26;42.85;100687.34;6338864;20;1820182;-42
2022/01/29 09:27:38;;;;;;;;;5.25;3.00;;;;;5.78;42.92;100690.38;6337939;20;1819171;-43
2022/01/29 09:30:08;;;;;;;;;5.00;2.00;;;;;5.82;43.25;100686.72;6335540;20;1813947;-43
2022/01/29 09:32:37;;;;;;;;;2.00;2.00;;;;;5.90;42.36;100676.75;6338155;20;1813998;-45
2022/01/29 09:35:07;;;;;;;;;4.25;2.25;;;;;6.37;41.42;100679.94;6338836;20;1809640;-44
2022/01/29 09:37:34;;;;;;;;;20.50;15.00;;;;;6.29;41.02;100681.03;6319981;20;2807622;-45
2022/01/29 09:40:03;;;;;;;;;1.00;1.00;;;;;5.88;40.57;100669.69;6291701;20;3439822;-43
2022/01/29 09:42:31;;;;;;;;;2.33;0.67;;;;;6.33;39.09;100667.59;6319089;20;3446073;-43
2022/01/29 09:45:01;;;;;;;;;16.67;14.67;;;;;6.43;39.11;100662.00;6287021;20;2798203;-42
2022/01/29 09:47:30;;;;;;;;;4.25;2.50;;;;;6.47;39.10;100659.19;6334505;20;1824076;-45
2022/01/29 09:49:58;;;;;;;;;2.33;1.33;;;;;6.58;38.82;100659.75;6319804;20;3443351;-46
2022/01/29 09:52:28;;;;;;;;;144.25;113.00;;;;;6.84;39.06;100651.88;6284844;20;4468990;-48
2022/01/29 09:54:59;;;;;;;;;3.00;3.00;;;;;6.54;40.09;100649.22;6287011;20;3470059;-45
2022/01/29 09:57:28;;;;;;;;;2.00;2.00;;;;;6.48;40.53;100638.75;6336990;20;1823295;-46
2022/01/29 09:59:56;;;;;;;;;12.00;11.00;;;;;7.00;39.63;100638.03;6321500;20;2781531;-45
2022/01/29 10:02:24;;;;;;;;;7.00;7.00;;;;;7.11;39.13;100627.00;6290105;20;2745047;-45
2022/01/29 10:04:57;;;;;;;;;9.00;6.00;;;;;6.79;38.76;100623.56;6360394;20;1817047;-49
2022/01/29 10:07:29;;;;;;;;;3.00;3.00;;;;;6.81;38.04;100629.69;6289747;20;3459607;-47
2022/01/29 10:10:03;;;;;;;;;6.50;5.25;;;;;6.86;38.07;100623.34;6338419;20;1812866;-47
2022/01/29 10:12:37;;;;;;;;;36.00;34.00;;;;;7.43;37.28;100630.41;6316648;20;2868075;-46
2022/01/29 10:15:09;;;;;;;;;31.00;22.00;;;;;7.59;37.33;100628.09;6284915;20;2846228;-48
2022/01/29 10:17:54;;;;;;;;;6.00;5.00;;;;;7.31;36.63;100614.78;6287553;20;2756496;-46
2022/01/29 10:20:29;;;;;;;;;6.50;6.50;;;;;7.14;36.72;100615.34;6290658;20;2748145;-45
2022/01/29 10:23:01;;;;;;;;;7.67;4.33;;;;;7.15;37.57;100612.59;6322328;20;3463792;-47
2022/01/29 10:25:37;;;;;;;;;8.00;5.00;;;;;7.07;38.46;100611.97;6320915;20;2754467;-47
2022/01/29 10:28:20;;;;;;;;;11.00;8.50;;;;;7.16;38.41;100611.69;6314794;20;2753377;-45
2022/01/29 10:30:48;;;;;;;;;11.50;7.00;;;;;6.94;39.42;100614.16;6289123;20;2753875;-46
2022/01/29 10:33:21;;;;;;;;;8.00;6.00;;;;;6.66;39.63;100605.25;6306380;20;1825372;-46
2022/01/29 10:36:02;;;;;;;;;7.50;4.00;;;;;6.95;39.40;100607.94;6339727;20;1810701;-47
2022/01/29 10:38:57;;;;;;;;;6.00;6.00;;;;;6.78;40.28;100608.44;6338387;20;1818044;-45
2022/01/29 10:41:30;;;;;;;;;10.00;7.00;;;;;7.58;39.85;100603.16;6323145;20;2758602;-46
2022/01/29 10:44:22;;;;;;;;;12.00;10.00;;;;;7.16;39.52;100606.34;6314664;20;2789880;-48
2022/01/29 10:46:53;;;;;;;;;8.25;8.25;;;;;7.08;39.44;100605.72;6308475;20;1808518;-45
2022/01/29 10:49:34;;;;;;;;;4.00;4.00;;;;;7.19;40.04;100602.72;6319158;20;2756545;-49
2022/01/29 10:52:10;;;;;;;;;5.20;4.60;;;;;7.49;39.28;100595.44;6344255;20;2755447;-46
2022/01/29 10:54:43;;;;;;;;;7.00;7.00;;;;;7.59;40.15;100588.88;6333428;20;1810038;-46
2022/01/29 10:57:15;;;;;;;;;6.00;6.00;;;;;7.66;39.38;100579.72;6338465;20;1815592;-47
2022/01/29 10:59:53;;;;;;;;;4.00;4.00;;;;;7.81;39.86;100572.06;6319273;20;2750317;-46
2022/01/29 11:02:29;;;;;;;;;7.00;6.00;;;;;7.32;39.75;100577.34;6290021;20;2745027;-45
2022/01/29 11:05:01;;;;;;;;;7.00;6.00;;;;;7.79;40.96;100573.91;6286791;20;2742981;-47
2022/01/29 11:07:31;;;;;;;;;7.00;7.00;;;;;7.48;38.79;100569.66;6336396;20;1814013;-46
2022/01/29 11:10:05;;;;;;;;;10.50;8.00;;;;;8.09;38.45;100567.47;6321117;20;2767025;-46
2022/01/29 11:12:37;;;;;;;;;18.50;15.00;;;;;7.63;38.52;100569.09;6288861;20;2825378;-47
2022/01/29 11:15:05;;;;;;;;;12.50;8.00;;;;;7.28;39.13;100573.00;6285765;20;2760769;-47
2022/01/29 11:17:34;;;;;;;;;10.00;10.00;;;;;7.52;38.76;100565.09;6288953;20;2770054;-44
2022/01/29 11:20:04;;;;;;;;;12.00;8.00;;;;;7.55;38.75;100571.19;6285475;20;2759594;-48
2022/01/29 11:22:39;;;;;;;;;18.00;16.50;;;;;7.82;38.85;100573.81;6291356;20;2814824;-48
2022/01/29 11:25:20;;;;;;;;;4.00;4.00;;;;;7.76;38.40;100563.34;6286847;20;2756523;-48
2022/01/29 11:28:22;;;;;;;;;6.83;6.33;;;;;7.80;38.22;100560.50;6326961;20;1797204;-46
2022/01/29 11:31:15;;;;;;;;;11.00;7.75;;;;;7.83;38.53;100560.38;6305726;20;1844151;-49
2022/01/29 11:34:08;;;;;;;;;8.50;6.00;;;;;7.57;39.65;100547.97;6321119;20;2745038;-48
2022/01/29 11:36:49;;;;;;;;;16.40;7.60;;;;;7.18;40.31;100547.53;6341681;20;2791937;-46
2022/01/29 11:39:28;;;;;;;;;8.25;8.25;;;;;7.40;40.29;100550.38;6306050;20;1808597;-46
2022/01/29 11:42:12;;;;;;;;;15.00;8.00;;;;;7.82;40.26;100547.06;6318023;20;2767980;-45
2022/01/29 11:44:43;;;;;;;;;19.00;15.33;;;;;7.67;40.90;100544.03;6285827;20;3546061;-45